^^
Meteo Knjazevac Station Historical Data
Daily Summary for August 14, 2022 Units:  Both    English   Metric
Daily Weekly Monthly Yearly Custom
  High: Low: Average:
Temperature: 45.9 °F /  7.7 °C 34.9 °F /  1.6 °C 40.8 °F /  4.9 °C
Dew Point: 45.7 °F /  7.6 °C 34.6 °F /  1.4 °C 40.5 °F /  4.7 °C
Humidity: 99% 99% 99%
Wind Speed: 7.6mph /  12.2km/h - 2.6mph /  4.2km/h
Wind Gust: 8mph /  12.9km/h - -
Wind- - SSE
Pressure: 30.38 in /  1028.7 hPa 30.27 in /  1024.9 hPa -
Precipitation: 0.00 in /  0 mm    
Historical Graphs
 
 
Tabular Data for August 14, 2022
Time Temperature Dew Point Pressure Wind Wind Speed Wind Gust Humidity Rainfall Rate (Hourly) solar Conditions
00:04 36.1 °F /  2.3 °C 35.8 °F /  2.1 °C 30.38in /  1028.7hPa WNW 2.5mph /  4km/h 3mph /  4.8km/h 99% 0.00in /  0mm 0 W/m2
00:09 36 °F /  2.2 °C 35.7 °F /  2.1 °C 30.38in /  1028.7hPa WNW 3.2mph /  5.1km/h 3.1mph /  5km/h 99% 0.00in /  0mm 0 W/m2
00:14 36 °F /  2.2 °C 35.7 °F /  2.1 °C 30.37in /  1028.3hPa WNW 3.4mph /  5.5km/h 4mph /  6.4km/h 99% 0.00in /  0mm 0 W/m2
00:19 36 °F /  2.2 °C 35.7 °F /  2.1 °C 30.37in /  1028.3hPa WNW 3.2mph /  5.1km/h 3mph /  4.8km/h 99% 0.00in /  0mm 0 W/m2
00:24 35.9 °F /  2.2 °C 35.6 °F /  2 °C 30.37in /  1028.3hPa West 2.7mph /  4.3km/h 3mph /  4.8km/h 99% 0.00in /  0mm 0 W/m2
00:29 35.7 °F /  2.1 °C 35.4 °F /  1.9 °C 30.37in /  1028.3hPa West 2.2mph /  3.5km/h 3mph /  4.8km/h 99% 0.00in /  0mm 0 W/m2
00:34 35.6 °F /  2 °C 35.3 °F /  1.8 °C 30.37in /  1028.3hPa WNW 2.2mph /  3.5km/h 2mph /  3.2km/h 99% 0.00in /  0mm 0 W/m2
00:39 35.6 °F /  2 °C 35.3 °F /  1.8 °C 30.37in /  1028.3hPa NW 1.4mph /  2.3km/h 2mph /  3.2km/h 99% 0.00in /  0mm 0 W/m2
00:44 35.6 °F /  2 °C 35.3 °F /  1.8 °C 30.37in /  1028.3hPa NW 0.6mph /  1km/h 2mph /  3.2km/h 99% 0.00in /  0mm 0 W/m2
00:49 35.7 °F /  2.1 °C 35.4 °F /  1.9 °C 30.38in /  1028.7hPa North 0.3mph /  0.5km/h 1mph /  1.6km/h 99% 0.00in /  0mm 0 W/m2
00:54 35.8 °F /  2.1 °C 35.5 °F /  1.9 °C 30.37in /  1028.3hPa NNW 1.6mph /  2.6km/h 1.6mph /  2.6km/h 99% 0.00in /  0mm 0 W/m2
00:59 35.8 °F /  2.1 °C 35.5 °F /  1.9 °C 30.37in /  1028.3hPa WNW 2.7mph /  4.3km/h 2.5mph /  4km/h 99% 0.00in /  0mm 0 W/m2
01:04 35.9 °F /  2.2 °C 35.6 °F /  2 °C 30.37in /  1028.3hPa West 3.4mph /  5.5km/h 3mph /  4.8km/h 99% 0.00in /  0mm 0 W/m2
01:09 36 °F /  2.2 °C 35.7 °F /  2.1 °C 30.37in /  1028.3hPa WNW 2.1mph /  3.4km/h 3mph /  4.8km/h 99% 0.00in /  0mm 0 W/m2
01:14 36 °F /  2.2 °C 35.7 °F /  2.1 °C 30.37in /  1028.3hPa WNW 2.1mph /  3.4km/h 2mph /  3.2km/h 99% 0.00in /  0mm 0 W/m2
01:19 36 °F /  2.2 °C 35.7 °F /  2.1 °C 30.37in /  1028.3hPa WNW 2.2mph /  3.5km/h 2mph /  3.2km/h 99% 0.00in /  0mm 0 W/m2
01:24 36 °F /  2.2 °C 35.7 °F /  2.1 °C 30.37in /  1028.3hPa WNW 1.1mph /  1.8km/h 2mph /  3.2km/h 99% 0.00in /  0mm 0 W/m2
01:29 36 °F /  2.2 °C 35.7 °F /  2.1 °C 30.37in /  1028.3hPa WNW 2mph /  3.2km/h 2mph /  3.2km/h 99% 0.00in /  0mm 0 W/m2
01:34 35.8 °F /  2.1 °C 35.5 °F /  1.9 °C 30.37in /  1028.3hPa West 1.8mph /  2.9km/h 2mph /  3.2km/h 99% 0.00in /  0mm 0 W/m2
01:39 35.6 °F /  2 °C 35.3 °F /  1.8 °C 30.37in /  1028.3hPa West 2.3mph /  3.7km/h 2mph /  3.2km/h 99% 0.00in /  0mm 0 W/m2
01:44 35.5 °F /  1.9 °C 35.3 °F /  1.8 °C 30.37in /  1028.3hPa WNW 2.1mph /  3.4km/h 2mph /  3.2km/h 99% 0.00in /  0mm 0 W/m2
01:49 35.4 °F /  1.9 °C 35.2 °F /  1.8 °C 30.37in /  1028.3hPa NW 1.7mph /  2.7km/h 2mph /  3.2km/h 99% 0.00in /  0mm 0 W/m2
01:54 35.4 °F /  1.9 °C 35.2 °F /  1.8 °C 30.37in /  1028.3hPa NNW 1mph /  1.6km/h 2mph /  3.2km/h 99% 0.00in /  0mm 0 W/m2
01:59 35.4 °F /  1.9 °C 35.2 °F /  1.8 °C 30.37in /  1028.3hPa NNW 1.8mph /  2.9km/h 2mph /  3.2km/h 99% 0.00in /  0mm 0 W/m2
02:04 35.2 °F /  1.8 °C 35 °F /  1.7 °C 30.37in /  1028.3hPa West 2.2mph /  3.5km/h 2mph /  3.2km/h 99% 0.00in /  0mm 0 W/m2
02:09 35.2 °F /  1.8 °C 34.9 °F /  1.6 °C 30.36in /  1028hPa WNW 1.9mph /  3.1km/h 2mph /  3.2km/h 99% 0.00in /  0mm 0 W/m2
02:14 35.1 °F /  1.7 °C 34.8 °F /  1.6 °C 30.36in /  1028hPa WNW 1.4mph /  2.3km/h 2mph /  3.2km/h 99% 0.00in /  0mm 0 W/m2
02:19 34.9 °F /  1.6 °C 34.6 °F /  1.4 °C 30.36in /  1028hPa West 1.1mph /  1.8km/h 2mph /  3.2km/h 99% 0.00in /  0mm 0 W/m2
02:24 34.9 °F /  1.6 °C 34.6 °F /  1.4 °C 30.36in /  1028hPa WNW 2.2mph /  3.5km/h 2mph /  3.2km/h 99% 0.00in /  0mm 0 W/m2
02:29 35.1 °F /  1.7 °C 34.8 °F /  1.6 °C 30.36in /  1028hPa WNW 1.4mph /  2.3km/h 2mph /  3.2km/h 99% 0.00in /  0mm 0 W/m2
02:34 35.1 °F /  1.7 °C 34.8 °F /  1.6 °C 30.36in /  1028hPa NW 1.1mph /  1.8km/h 2mph /  3.2km/h 99% 0.00in /  0mm 0 W/m2
02:39 35.2 °F /  1.8 °C 35 °F /  1.7 °C 30.36in /  1028hPa NW 1.4mph /  2.3km/h 2mph /  3.2km/h 99% 0.00in /  0mm 0 W/m2
02:44 35.3 °F /  1.8 °C 35.1 °F /  1.7 °C 30.36in /  1028hPa WNW 1.4mph /  2.3km/h 2mph /  3.2km/h 99% 0.00in /  0mm 0 W/m2
02:49 35.4 °F /  1.9 °C 35.2 °F /  1.8 °C 30.36in /  1028hPa WNW 1.5mph /  2.4km/h 2mph /  3.2km/h 99% 0.00in /  0mm 0 W/m2
02:54 35.6 °F /  2 °C 35.3 °F /  1.8 °C 30.36in /  1028hPa West 2.2mph /  3.5km/h 2mph /  3.2km/h 99% 0.00in /  0mm 0 W/m2
02:59 35.6 °F /  2 °C 35.3 °F /  1.8 °C 30.36in /  1028hPa West 2.2mph /  3.5km/h 2mph /  3.2km/h 99% 0.00in /  0mm 0 W/m2
03:04 35.7 °F /  2.1 °C 35.4 °F /  1.9 °C 30.36in /  1028hPa West 1.7mph /  2.7km/h 2mph /  3.2km/h 99% 0.00in /  0mm 0 W/m2
03:09 35.7 °F /  2.1 °C 35.4 °F /  1.9 °C 30.36in /  1028hPa WNW 2.1mph /  3.4km/h 2mph /  3.2km/h 99% 0.00in /  0mm 0 W/m2
03:14 35.8 °F /  2.1 °C 35.5 °F /  1.9 °C 30.36in /  1028hPa WNW 0.7mph /  1.1km/h 2mph /  3.2km/h 99% 0.00in /  0mm 0 W/m2
03:19 35.9 °F /  2.2 °C 35.6 °F /  2 °C 30.36in /  1028hPa Calm   1mph /  1.6km/h 99% 0.00in /  0mm 0 W/m2
03:24 36.1 °F /  2.3 °C 35.8 °F /  2.1 °C 30.36in /  1028hPa North 0.1mph /  0.2km/h   99% 0.00in /  0mm 0 W/m2
03:29 36.1 °F /  2.3 °C 35.9 °F /  2.2 °C 30.35in /  1027.7hPa NNW 1.3mph /  2.1km/h 2mph /  3.2km/h 99% 0.00in /  0mm 0 W/m2
03:34 36.3 °F /  2.4 °C 36.1 °F /  2.3 °C 30.35in /  1027.7hPa NW 1.2mph /  1.9km/h 2mph /  3.2km/h 99% 0.00in /  0mm 0 W/m2
03:39 36.3 °F /  2.4 °C 36.1 °F /  2.3 °C 30.35in /  1027.7hPa NW 0.8mph /  1.3km/h 1mph /  1.6km/h 99% 0.00in /  0mm 0 W/m2
03:44 36.3 °F /  2.4 °C 36.1 °F /  2.3 °C 30.35in /  1027.7hPa WNW 2.1mph /  3.4km/h 2mph /  3.2km/h 99% 0.00in /  0mm 0 W/m2
03:49 36.4 °F /  2.4 °C 36.1 °F /  2.3 °C 30.35in /  1027.7hPa NW 1.5mph /  2.4km/h 2mph /  3.2km/h 99% 0.00in /  0mm 0 W/m2
03:54 36.5 °F /  2.5 °C 36.2 °F /  2.3 °C 30.35in /  1027.7hPa WNW 0.4mph /  0.6km/h 2mph /  3.2km/h 99% 0.00in /  0mm 0 W/m2
03:59 36.6 °F /  2.6 °C 36.3 °F /  2.4 °C 30.35in /  1027.7hPa West 1.2mph /  1.9km/h 1mph /  1.6km/h 99% 0.00in /  0mm 0 W/m2
04:04 36.7 °F /  2.6 °C 36.4 °F /  2.4 °C 30.35in /  1027.7hPa West 2.2mph /  3.5km/h 2mph /  3.2km/h 99% 0.00in /  0mm 0 W/m2
04:09 36.7 °F /  2.6 °C 36.4 °F /  2.4 °C 30.35in /  1027.7hPa West 2.7mph /  4.3km/h 2.2mph /  3.5km/h 99% 0.00in /  0mm 0 W/m2
04:14 36.8 °F /  2.7 °C 36.5 °F /  2.5 °C 30.35in /  1027.7hPa West 3.2mph /  5.1km/h 3mph /  4.8km/h 99% 0.00in /  0mm 0 W/m2
04:19 36.9 °F /  2.7 °C 36.6 °F /  2.6 °C 30.35in /  1027.7hPa West 2.4mph /  3.9km/h 3mph /  4.8km/h 99% 0.00in /  0mm 0 W/m2
04:24 36.9 °F /  2.7 °C 36.6 °F /  2.6 °C 30.35in /  1027.7hPa West 2.7mph /  4.3km/h 3mph /  4.8km/h 99% 0.00in /  0mm 0 W/m2
04:29 36.9 °F /  2.7 °C 36.6 °F /  2.6 °C 30.35in /  1027.7hPa WSW 4mph /  6.4km/h 3.4mph /  5.5km/h 99% 0.00in /  0mm 0 W/m2
04:34 36.9 °F /  2.7 °C 36.6 °F /  2.6 °C 30.35in /  1027.7hPa West 3.3mph /  5.3km/h 5mph /  8km/h 99% 0.00in /  0mm 0 W/m2
04:39 37 °F /  2.8 °C 36.8 °F /  2.7 °C 30.34in /  1027.3hPa WSW 2.8mph /  4.5km/h 3mph /  4.8km/h 99% 0.00in /  0mm 0 W/m2
04:44 37 °F /  2.8 °C 36.8 °F /  2.7 °C 30.34in /  1027.3hPa West 2.7mph /  4.3km/h 3mph /  4.8km/h 99% 0.00in /  0mm 0 W/m2
04:49 37 °F /  2.8 °C 36.8 °F /  2.7 °C 30.34in /  1027.3hPa WNW 2.2mph /  3.5km/h 3mph /  4.8km/h 99% 0.00in /  0mm 0 W/m2
04:54 37 °F /  2.8 °C 36.8 °F /  2.7 °C 30.34in /  1027.3hPa WNW 2.5mph /  4km/h 3mph /  4.8km/h 99% 0.00in /  0mm 0 W/m2
04:59 37.1 °F /  2.8 °C 36.9 °F /  2.7 °C 30.34in /  1027.3hPa WNW 2.4mph /  3.9km/h 3mph /  4.8km/h 99% 0.00in /  0mm 0 W/m2
05:04 37.2 °F /  2.9 °C 37 °F /  2.8 °C 30.34in /  1027.3hPa WNW 1.8mph /  2.9km/h 3mph /  4.8km/h 99% 0.00in /  0mm 0 W/m2
05:09 37.2 °F /  2.9 °C 37 °F /  2.8 °C 30.34in /  1027.3hPa Calm   2mph /  3.2km/h 99% 0.00in /  0mm 0 W/m2
05:14 37.2 °F /  2.9 °C 37 °F /  2.8 °C 30.34in /  1027.3hPa WSW 0.5mph /  0.8km/h   99% 0.00in /  0mm 0 W/m2
05:19 37.2 °F /  2.9 °C 37 °F /  2.8 °C 30.34in /  1027.3hPa West 2.3mph /  3.7km/h 1.8mph /  2.9km/h 99% 0.00in /  0mm 0 W/m2
05:24 37.2 °F /  2.9 °C 37 °F /  2.8 °C 30.34in /  1027.3hPa WNW 2.2mph /  3.5km/h 3mph /  4.8km/h 99% 0.00in /  0mm 0 W/m2
05:29 37.1 °F /  2.8 °C 36.9 °F /  2.7 °C 30.34in /  1027.3hPa WNW 2.5mph /  4km/h 3mph /  4.8km/h 99% 0.00in /  0mm 0 W/m2
05:34 37 °F /  2.8 °C 36.8 °F /  2.7 °C 30.33in /  1027hPa West 2.9mph /  4.7km/h 3mph /  4.8km/h 99% 0.00in /  0mm 0 W/m2
05:39 37 °F /  2.8 °C 36.7 °F /  2.6 °C 30.33in /  1027hPa WSW 2.2mph /  3.5km/h 3mph /  4.8km/h 99% 0.00in /  0mm 0 W/m2
05:44 36.9 °F /  2.7 °C 36.6 °F /  2.6 °C 30.33in /  1027hPa West 1.9mph /  3.1km/h 2mph /  3.2km/h 99% 0.00in /  0mm 0 W/m2
05:49 36.9 °F /  2.7 °C 36.6 °F /  2.6 °C 30.33in /  1027hPa WNW 1.6mph /  2.6km/h 2mph /  3.2km/h 99% 0.00in /  0mm 0 W/m2
05:54 36.9 °F /  2.7 °C 36.6 °F /  2.6 °C 30.33in /  1027hPa Calm   2mph /  3.2km/h 99% 0.00in /  0mm 0 W/m2
05:59 36.7 °F /  2.6 °C 36.4 °F /  2.4 °C 30.33in /  1027hPa WNW 1.1mph /  1.8km/h 0.9mph /  1.4km/h 99% 0.00in /  0mm 0 W/m2
06:04 36.7 °F /  2.6 °C 36.4 °F /  2.4 °C 30.33in /  1027hPa NNW 2.2mph /  3.5km/h 2mph /  3.2km/h 99% 0.00in /  0mm 0 W/m2
06:09 36.8 °F /  2.7 °C 36.5 °F /  2.5 °C 30.33in /  1027hPa North 1.3mph /  2.1km/h 2mph /  3.2km/h 99% 0.00in /  0mm 0 W/m2
06:14 36.8 °F /  2.7 °C 36.5 °F /  2.5 °C 30.34in /  1027.3hPa North 2.7mph /  4.3km/h 2.2mph /  3.5km/h 99% 0.00in /  0mm 0 W/m2
06:19 36.7 °F /  2.6 °C 36.4 °F /  2.4 °C 30.34in /  1027.3hPa NNE 2.7mph /  4.3km/h 3mph /  4.8km/h 99% 0.00in /  0mm 1 W/m2
06:24 36.6 °F /  2.6 °C 36.3 °F /  2.4 °C 30.34in /  1027.3hPa North 2.3mph /  3.7km/h 3mph /  4.8km/h 99% 0.00in /  0mm 2 W/m2
06:29 36.3 °F /  2.4 °C 36.1 °F /  2.3 °C 30.34in /  1027.3hPa North 2.9mph /  4.7km/h 3mph /  4.8km/h 99% 0.00in /  0mm 4 W/m2
06:34 36.3 °F /  2.4 °C 36.1 °F /  2.3 °C 30.34in /  1027.3hPa NNE 2.7mph /  4.3km/h 6mph /  9.7km/h 99% 0.00in /  0mm 7 W/m2
06:39 36.2 °F /  2.3 °C 36 °F /  2.2 °C 30.34in /  1027.3hPa NNE 2.9mph /  4.7km/h 4mph /  6.4km/h 99% 0.00in /  0mm 8 W/m2
06:44 36.1 °F /  2.3 °C 35.9 °F /  2.2 °C 30.34in /  1027.3hPa NNE 1.3mph /  2.1km/h 4mph /  6.4km/h 99% 0.00in /  0mm 10 W/m2
06:49 36.1 °F /  2.3 °C 35.9 °F /  2.2 °C 30.34in /  1027.3hPa NNE 2mph /  3.2km/h 2mph /  3.2km/h 99% 0.00in /  0mm 12 W/m2
06:54 36.2 °F /  2.3 °C 36 °F /  2.2 °C 30.34in /  1027.3hPa NNE 2.4mph /  3.9km/h 3mph /  4.8km/h 99% 0.00in /  0mm 14 W/m2
06:59 36.3 °F /  2.4 °C 36.1 °F /  2.3 °C 30.34in /  1027.3hPa NE 2.8mph /  4.5km/h 3mph /  4.8km/h 99% 0.00in /  0mm 18 W/m2
07:04 36.3 °F /  2.4 °C 36.1 °F /  2.3 °C 30.34in /  1027.3hPa NNE 1.5mph /  2.4km/h 3mph /  4.8km/h 99% 0.00in /  0mm 19 W/m2
07:09 36.4 °F /  2.4 °C 36.2 °F /  2.3 °C 30.35in /  1027.7hPa NNE 2.2mph /  3.5km/h 2mph /  3.2km/h 99% 0.00in /  0mm 21 W/m2
07:14 36.3 °F /  2.4 °C 36.1 °F /  2.3 °C 30.35in /  1027.7hPa NNW 2.2mph /  3.5km/h 2mph /  3.2km/h 99% 0.00in /  0mm 29 W/m2
07:19 36.3 °F /  2.4 °C 36.1 °F /  2.3 °C 30.35in /  1027.7hPa NW 2.1mph /  3.4km/h 3mph /  4.8km/h 99% 0.00in /  0mm 32 W/m2
07:24 36.2 °F /  2.3 °C 36 °F /  2.2 °C 30.35in /  1027.7hPa WNW 2.2mph /  3.5km/h 2mph /  3.2km/h 99% 0.00in /  0mm 39 W/m2
07:29 36.1 °F /  2.3 °C 35.9 °F /  2.2 °C 30.35in /  1027.7hPa NW 2.2mph /  3.5km/h 2mph /  3.2km/h 99% 0.00in /  0mm 40 W/m2
07:34 36.2 °F /  2.3 °C 36 °F /  2.2 °C 30.35in /  1027.7hPa WNW 0.4mph /  0.6km/h 2mph /  3.2km/h 99% 0.00in /  0mm 42 W/m2
07:39 36.3 °F /  2.4 °C 36.1 °F /  2.3 °C 30.35in /  1027.7hPa West 0.7mph /  1.1km/h 1mph /  1.6km/h 99% 0.00in /  0mm 48 W/m2
07:44 36.3 °F /  2.4 °C 36.1 °F /  2.3 °C 30.35in /  1027.7hPa WNW 0.5mph /  0.8km/h 1mph /  1.6km/h 99% 0.00in /  0mm 51 W/m2
07:49 36.4 °F /  2.4 °C 36.1 °F /  2.3 °C 30.35in /  1027.7hPa North 0.6mph /  1km/h 1mph /  1.6km/h 99% 0.00in /  0mm 55 W/m2
07:54 36.5 °F /  2.5 °C 36.2 °F /  2.3 °C 30.35in /  1027.7hPa North 1.8mph /  2.9km/h 2mph /  3.2km/h 99% 0.00in /  0mm 65 W/m2
07:59 36.5 °F /  2.5 °C 36.2 °F /  2.3 °C 30.35in /  1027.7hPa NNE 2.1mph /  3.4km/h 3mph /  4.8km/h 99% 0.00in /  0mm 65 W/m2
08:04 36.5 °F /  2.5 °C 36.2 °F /  2.3 °C 30.35in /  1027.7hPa NE 1.1mph /  1.8km/h 2mph /  3.2km/h 99% 0.00in /  0mm 77 W/m2
08:09 36.5 °F /  2.5 °C 36.2 °F /  2.3 °C 30.35in /  1027.7hPa NNE 1.2mph /  1.9km/h 2mph /  3.2km/h 99% 0.00in /  0mm 80 W/m2
08:14 36.5 °F /  2.5 °C 36.2 °F /  2.3 °C 30.35in /  1027.7hPa NW 2mph /  3.2km/h 2mph /  3.2km/h 99% 0.00in /  0mm 84 W/m2
08:19 36.7 °F /  2.6 °C 36.4 °F /  2.4 °C 30.35in /  1027.7hPa West 1.4mph /  2.3km/h 2mph /  3.2km/h 99% 0.00in /  0mm 94 W/m2
08:24 36.9 °F /  2.7 °C 36.6 °F /  2.6 °C 30.35in /  1027.7hPa WNW 2.2mph /  3.5km/h 2mph /  3.2km/h 99% 0.00in /  0mm 100 W/m2
08:29 36.9 °F /  2.7 °C 36.7 °F /  2.6 °C 30.35in /  1027.7hPa WNW 3mph /  4.8km/h 3mph /  4.8km/h 99% 0.00in /  0mm 140 W/m2
08:34 37 °F /  2.8 °C 36.8 °F /  2.7 °C 30.35in /  1027.7hPa WNW 2.3mph /  3.7km/h 3mph /  4.8km/h 99% 0.00in /  0mm 118 W/m2
08:39 37.2 °F /  2.9 °C 37 °F /  2.8 °C 30.35in /  1027.7hPa WNW 2.2mph /  3.5km/h 2mph /  3.2km/h 99% 0.00in /  0mm 117 W/m2
08:44 37.2 °F /  2.9 °C 37 °F /  2.8 °C 30.35in /  1027.7hPa WNW 2mph /  3.2km/h 2mph /  3.2km/h 99% 0.00in /  0mm 114 W/m2
08:49 37.3 °F /  2.9 °C 37.1 °F /  2.8 °C 30.35in /  1027.7hPa WNW 1.9mph /  3.1km/h 2mph /  3.2km/h 99% 0.00in /  0mm 124 W/m2
08:54 37.4 °F /  3 °C 37.1 °F /  2.8 °C 30.35in /  1027.7hPa WNW 2.1mph /  3.4km/h 2mph /  3.2km/h 99% 0.00in /  0mm 124 W/m2
08:59 37.5 °F /  3.1 °C 37.2 °F /  2.9 °C 30.35in /  1027.7hPa West 0.8mph /  1.3km/h 2mph /  3.2km/h 99% 0.00in /  0mm 143 W/m2
09:04 37.7 °F /  3.2 °C 37.4 °F /  3 °C 30.35in /  1027.7hPa WNW 1.1mph /  1.8km/h 2mph /  3.2km/h 99% 0.00in /  0mm 139 W/m2
09:09 37.9 °F /  3.3 °C 37.7 °F /  3.2 °C 30.35in /  1027.7hPa NW 1.6mph /  2.6km/h 2mph /  3.2km/h 99% 0.00in /  0mm 139 W/m2
09:14 38.1 °F /  3.4 °C 37.9 °F /  3.3 °C 30.35in /  1027.7hPa North 1.3mph /  2.1km/h 2mph /  3.2km/h 99% 0.00in /  0mm 135 W/m2
09:19 38 °F /  3.3 °C 37.8 °F /  3.2 °C 30.35in /  1027.7hPa NNE 3mph /  4.8km/h 2.2mph /  3.5km/h 99% 0.00in /  0mm 142 W/m2
09:24 38.2 °F /  3.4 °C 37.9 °F /  3.3 °C 30.35in /  1027.7hPa NE 3.4mph /  5.5km/h 3mph /  4.8km/h 99% 0.00in /  0mm 155 W/m2
09:29 38.4 °F /  3.6 °C 38.1 °F /  3.4 °C 30.35in /  1027.7hPa NE 2.1mph /  3.4km/h 4mph /  6.4km/h 99% 0.00in /  0mm 161 W/m2
09:34 38.5 °F /  3.6 °C 38.2 °F /  3.4 °C 30.35in /  1027.7hPa NE 2.3mph /  3.7km/h 4mph /  6.4km/h 99% 0.00in /  0mm 160 W/m2
09:39 38.8 °F /  3.8 °C 38.5 °F /  3.6 °C 30.35in /  1027.7hPa NE 0.6mph /  1km/h 4mph /  6.4km/h 99% 0.00in /  0mm 155 W/m2
09:44 39 °F /  3.9 °C 38.8 °F /  3.8 °C 30.36in /  1028hPa NE 1.5mph /  2.4km/h 2mph /  3.2km/h 99% 0.00in /  0mm 152 W/m2
09:49 39.2 °F /  4 °C 38.9 °F /  3.8 °C 30.35in /  1027.7hPa Calm   2mph /  3.2km/h 99% 0.00in /  0mm 152 W/m2
09:54 39.3 °F /  4.1 °C 39 °F /  3.9 °C 30.35in /  1027.7hPa East 1.8mph /  2.9km/h 2mph /  3.2km/h 99% 0.00in /  0mm 143 W/m2
09:59 39.5 °F /  4.2 °C 39.2 °F /  4 °C 30.35in /  1027.7hPa SSW 2.3mph /  3.7km/h 3mph /  4.8km/h 99% 0.00in /  0mm 142 W/m2
10:04 39.7 °F /  4.3 °C 39.5 °F /  4.2 °C 30.35in /  1027.7hPa WSW 2mph /  3.2km/h 2mph /  3.2km/h 99% 0.00in /  0mm 164 W/m2
10:09 39.7 °F /  4.3 °C 39.5 °F /  4.2 °C 30.35in /  1027.7hPa SW 2.1mph /  3.4km/h 2mph /  3.2km/h 99% 0.00in /  0mm 162 W/m2
10:14 39.8 °F /  4.3 °C 39.6 °F /  4.2 °C 30.35in /  1027.7hPa South 2.2mph /  3.5km/h 2.2mph /  3.5km/h 99% 0.00in /  0mm 143 W/m2
10:19 40 °F /  4.4 °C 39.8 °F /  4.3 °C 30.35in /  1027.7hPa WSW 1.6mph /  2.6km/h 3mph /  4.8km/h 99% 0.00in /  0mm 151 W/m2
10:24 40.3 °F /  4.6 °C 40 °F /  4.4 °C 30.35in /  1027.7hPa NW 1.3mph /  2.1km/h 2mph /  3.2km/h 99% 0.00in /  0mm 153 W/m2
10:29 40.5 °F /  4.7 °C 40.3 °F /  4.6 °C 30.35in /  1027.7hPa NNW 1.1mph /  1.8km/h 2mph /  3.2km/h 99% 0.00in /  0mm 149 W/m2
10:34 40.7 °F /  4.8 °C 40.5 °F /  4.7 °C 30.35in /  1027.7hPa NW 2mph /  3.2km/h 2mph /  3.2km/h 99% 0.00in /  0mm 138 W/m2
10:39 41 °F /  5 °C 40.7 °F /  4.8 °C 30.34in /  1027.3hPa WNW 0.5mph /  0.8km/h 2mph /  3.2km/h 99% 0.00in /  0mm 135 W/m2
10:44 41 °F /  5 °C 40.7 °F /  4.8 °C 30.34in /  1027.3hPa NW 0.3mph /  0.5km/h 1mph /  1.6km/h 99% 0.00in /  0mm 120 W/m2
10:49 41.3 °F /  5.2 °C 41 °F /  5 °C 30.34in /  1027.3hPa NNW 1.4mph /  2.3km/h 1mph /  1.6km/h 99% 0.00in /  0mm 124 W/m2
10:54 41.4 °F /  5.2 °C 41.1 °F /  5.1 °C 30.34in /  1027.3hPa North 1.1mph /  1.8km/h 2mph /  3.2km/h 99% 0.00in /  0mm 120 W/m2
10:59 41.5 °F /  5.3 °C 41.3 °F /  5.2 °C 30.34in /  1027.3hPa North 0.8mph /  1.3km/h 1mph /  1.6km/h 99% 0.00in /  0mm 120 W/m2
11:04 41.8 °F /  5.4 °C 41.5 °F /  5.3 °C 30.34in /  1027.3hPa NNW 1.6mph /  2.6km/h 2mph /  3.2km/h 99% 0.00in /  0mm 133 W/m2
11:09 41.9 °F /  5.5 °C 41.6 °F /  5.3 °C 30.34in /  1027.3hPa WNW 1.5mph /  2.4km/h 2mph /  3.2km/h 99% 0.00in /  0mm 149 W/m2
11:14 42.1 °F /  5.6 °C 41.8 °F /  5.4 °C 30.34in /  1027.3hPa WNW 1.5mph /  2.4km/h 2mph /  3.2km/h 99% 0.00in /  0mm 156 W/m2
11:19 42.3 °F /  5.7 °C 42.1 °F /  5.6 °C 30.34in /  1027.3hPa WNW 1.7mph /  2.7km/h 2mph /  3.2km/h 99% 0.00in /  0mm 135 W/m2
11:24 42.5 °F /  5.8 °C 42.3 °F /  5.7 °C 30.34in /  1027.3hPa NNW 1.4mph /  2.3km/h 2mph /  3.2km/h 99% 0.00in /  0mm 142 W/m2
11:29 42.8 °F /  6 °C 42.6 °F /  5.9 °C 30.34in /  1027.3hPa North 2.7mph /  4.3km/h 2.2mph /  3.5km/h 99% 0.00in /  0mm 146 W/m2
11:34 42.8 °F /  6 °C 42.5 °F /  5.8 °C 30.34in /  1027.3hPa NNE 2.8mph /  4.5km/h 4mph /  6.4km/h 99% 0.00in /  0mm 134 W/m2
11:39 42.7 °F /  5.9 °C 42.4 °F /  5.8 °C 30.33in /  1027hPa NE 2.4mph /  3.9km/h 4mph /  6.4km/h 99% 0.00in /  0mm 127 W/m2
11:44 42.8 °F /  6 °C 42.5 °F /  5.8 °C 30.33in /  1027hPa NE 3.2mph /  5.1km/h 3mph /  4.8km/h 99% 0.00in /  0mm 130 W/m2
11:49 43.1 °F /  6.2 °C 42.8 °F /  6 °C 30.33in /  1027hPa NNE 3mph /  4.8km/h 4mph /  6.4km/h 99% 0.00in /  0mm 123 W/m2
11:54 43.2 °F /  6.2 °C 43 °F /  6.1 °C 30.33in /  1027hPa NNE 3.1mph /  5km/h 3mph /  4.8km/h 99% 0.00in /  0mm 128 W/m2
11:59 43.5 °F /  6.4 °C 43.3 °F /  6.3 °C 30.33in /  1027hPa NNE 3.2mph /  5.1km/h 4mph /  6.4km/h 99% 0.00in /  0mm 110 W/m2
12:04 43.7 °F /  6.5 °C 43.4 °F /  6.3 °C 30.33in /  1027hPa NNE 2.6mph /  4.2km/h 4mph /  6.4km/h 99% 0.00in /  0mm 107 W/m2
12:09 43.8 °F /  6.6 °C 43.5 °F /  6.4 °C 30.33in /  1027hPa NNE 3.6mph /  5.8km/h 3mph /  4.8km/h 99% 0.00in /  0mm 105 W/m2
12:14 44 °F /  6.7 °C 43.7 °F /  6.5 °C 30.32in /  1026.6hPa NNE 3.2mph /  5.1km/h 5mph /  8km/h 99% 0.00in /  0mm 99 W/m2
12:19 44.1 °F /  6.7 °C 43.9 °F /  6.6 °C 30.32in /  1026.6hPa NNE 3.7mph /  6km/h 4mph /  6.4km/h 99% 0.00in /  0mm 98 W/m2
12:24 44.2 °F /  6.8 °C 44 °F /  6.7 °C 30.32in /  1026.6hPa NNE 2.5mph /  4km/h 5mph /  8km/h 99% 0.00in /  0mm 90 W/m2
12:29 44.4 °F /  6.9 °C 44.2 °F /  6.8 °C 30.32in /  1026.6hPa NNE 2.8mph /  4.5km/h 3mph /  4.8km/h 99% 0.00in /  0mm 91 W/m2
12:34 44.5 °F /  6.9 °C 44.3 °F /  6.8 °C 30.32in /  1026.6hPa North 3.7mph /  6km/h 3mph /  4.8km/h 99% 0.00in /  0mm 96 W/m2
12:39 44.6 °F /  7 °C 44.3 °F /  6.8 °C 30.32in /  1026.6hPa North 3.8mph /  6.1km/h 5mph /  8km/h 99% 0.00in /  0mm 92 W/m2
12:44 44.7 °F /  7.1 °C 44.4 °F /  6.9 °C 30.32in /  1026.6hPa North 3.3mph /  5.3km/h 5mph /  8km/h 99% 0.00in /  0mm 87 W/m2
12:49 44.9 °F /  7.2 °C 44.6 °F /  7 °C 30.32in /  1026.6hPa North 3.1mph /  5km/h 4mph /  6.4km/h 99% 0.00in /  0mm 86 W/m2
12:54 45 °F /  7.2 °C 44.7 °F /  7.1 °C 30.32in /  1026.6hPa North 3mph /  4.8km/h 4mph /  6.4km/h 99% 0.00in /  0mm 76 W/m2
12:59 45 °F /  7.2 °C 44.7 °F /  7.1 °C 30.32in /  1026.6hPa North 2.6mph /  4.2km/h 4mph /  6.4km/h 99% 0.00in /  0mm 72 W/m2
13:04 45 °F /  7.2 °C 44.7 °F /  7.1 °C 30.32in /  1026.6hPa North 2.3mph /  3.7km/h 3mph /  4.8km/h 99% 0.00in /  0mm 65 W/m2
13:09 45 °F /  7.2 °C 44.7 °F /  7.1 °C 30.32in /  1026.6hPa North 3.8mph /  6.1km/h 3mph /  4.8km/h 99% 0.00in /  0mm 64 W/m2
13:14 45.1 °F /  7.3 °C 44.8 °F /  7.1 °C 30.31in /  1026.3hPa North 3.6mph /  5.8km/h 5mph /  8km/h 99% 0.00in /  0mm 62 W/m2
13:19 45.1 °F /  7.3 °C 44.9 °F /  7.2 °C 30.31in /  1026.3hPa North 3.4mph /  5.5km/h 6mph /  9.7km/h 99% 0.00in /  0mm 62 W/m2
13:24 45.1 °F /  7.3 °C 44.9 °F /  7.2 °C 30.31in /  1026.3hPa North 3.8mph /  6.1km/h 3.1mph /  5km/h 99% 0.00in /  0mm 62 W/m2
13:29 45.2 °F /  7.3 °C 45 °F /  7.2 °C 30.31in /  1026.3hPa North 3.1mph /  5km/h 5mph /  8km/h 99% 0.00in /  0mm 62 W/m2
13:34 45.4 °F /  7.4 °C 45.1 °F /  7.3 °C 30.31in /  1026.3hPa North 3.8mph /  6.1km/h 4mph /  6.4km/h 99% 0.00in /  0mm 54 W/m2
13:39 45.5 °F /  7.5 °C 45.2 °F /  7.3 °C 30.31in /  1026.3hPa North 3mph /  4.8km/h 5mph /  8km/h 99% 0.00in /  0mm 48 W/m2
13:44 45.5 °F /  7.5 °C 45.2 °F /  7.3 °C 30.31in /  1026.3hPa North 3.6mph /  5.8km/h 4mph /  6.4km/h 99% 0.00in /  0mm 48 W/m2
13:49 45.5 °F /  7.5 °C 45.2 °F /  7.3 °C 30.31in /  1026.3hPa North 4.3mph /  6.9km/h 5mph /  8km/h 99% 0.00in /  0mm 47 W/m2
13:54 45.6 °F /  7.6 °C 45.3 °F /  7.4 °C 30.31in /  1026.3hPa North 5.4mph /  8.7km/h 6mph /  9.7km/h 99% 0.00in /  0mm 48 W/m2
13:59 45.7 °F /  7.6 °C 45.4 °F /  7.4 °C 30.31in /  1026.3hPa NNE 4.6mph /  7.4km/h 6mph /  9.7km/h 99% 0.00in /  0mm 47 W/m2
14:04 45.7 °F /  7.6 °C 45.4 °F /  7.4 °C 30.31in /  1026.3hPa NNE 6.2mph /  10km/h 6mph /  9.7km/h 99% 0.00in /  0mm 57 W/m2
14:09 45.7 °F /  7.6 °C 45.4 °F /  7.4 °C 30.30in /  1026hPa NNE 6mph /  9.7km/h 8mph /  12.9km/h 99% 0.00in /  0mm 56 W/m2
14:14 45.8 °F /  7.7 °C 45.5 °F /  7.5 °C 30.30in /  1026hPa NNE 7.6mph /  12.2km/h 8mph /  12.9km/h 99% 0.00in /  0mm 51 W/m2
14:19 45.8 °F /  7.7 °C 45.5 °F /  7.5 °C 30.30in /  1026hPa NNE 6.1mph /  9.8km/h 8mph /  12.9km/h 99% 0.00in /  0mm 51 W/m2
14:24 45.9 °F /  7.7 °C 45.6 °F /  7.6 °C 30.30in /  1026hPa NNE 6mph /  9.7km/h 7mph /  11.3km/h 99% 0.00in /  0mm 48 W/m2
14:29 45.8 °F /  7.7 °C 45.5 °F /  7.5 °C 30.30in /  1026hPa NNE 4.7mph /  7.6km/h 7mph /  11.3km/h 99% 0.00in /  0mm 43 W/m2
14:34 45.8 °F /  7.7 °C 45.5 °F /  7.5 °C 30.30in /  1026hPa North 5.6mph /  9km/h 6mph /  9.7km/h 99% 0.00in /  0mm 34 W/m2
14:39 45.9 °F /  7.7 °C 45.6 °F /  7.6 °C 30.30in /  1026hPa NNW 4.6mph /  7.4km/h 7mph /  11.3km/h 99% 0.00in /  0mm 33 W/m2
14:44 45.9 °F /  7.7 °C 45.6 °F /  7.6 °C 30.30in /  1026hPa North 4.1mph /  6.6km/h 7mph /  11.3km/h 99% 0.00in /  0mm 35 W/m2
14:49 45.9 °F /  7.7 °C 45.6 °F /  7.6 °C 30.30in /  1026hPa NNE 4.1mph /  6.6km/h 7mph /  11.3km/h 99% 0.00in /  0mm 37 W/m2
14:54 45.9 °F /  7.7 °C 45.6 °F /  7.6 °C 30.30in /  1026hPa NNE 4.3mph /  6.9km/h 6mph /  9.7km/h 99% 0.00in /  0mm 35 W/m2
14:59 45.9 °F /  7.7 °C 45.6 °F /  7.6 °C 30.30in /  1026hPa NNE 4.1mph /  6.6km/h 5mph /  8km/h 99% 0.00in /  0mm 31 W/m2
15:04 45.9 °F /  7.7 °C 45.7 °F /  7.6 °C 30.30in /  1026hPa NNE 4.9mph /  7.9km/h 6mph /  9.7km/h 99% 0.00in /  0mm 25 W/m2
15:09 45.9 °F /  7.7 °C 45.7 °F /  7.6 °C 30.30in /  1026hPa North 3.1mph /  5km/h 6mph /  9.7km/h 99% 0.00in /  0mm 19 W/m2
15:14 45.9 °F /  7.7 °C 45.6 °F /  7.6 °C 30.30in /  1026hPa North 5.1mph /  8.2km/h 4mph /  6.4km/h 99% 0.00in /  0mm 17 W/m2
15:19 45.9 °F /  7.7 °C 45.6 °F /  7.6 °C 30.30in /  1026hPa North 4.5mph /  7.2km/h 7mph /  11.3km/h 99% 0.00in /  0mm 12 W/m2
15:24 45.9 °F /  7.7 °C 45.6 °F /  7.6 °C 30.30in /  1026hPa North 5.1mph /  8.2km/h 7mph /  11.3km/h 99% 0.00in /  0mm 14 W/m2
15:29 45.7 °F /  7.6 °C 45.4 °F /  7.4 °C 30.30in /  1026hPa North 4.2mph /  6.8km/h 6mph /  9.7km/h 99% 0.00in /  0mm 12 W/m2
15:34 45.7 °F /  7.6 °C 45.4 °F /  7.4 °C 30.30in /  1026hPa North 4mph /  6.4km/h 5mph /  8km/h 99% 0.00in /  0mm 10 W/m2
15:39 45.7 °F /  7.6 °C 45.4 °F /  7.4 °C 30.30in /  1026hPa North 3.6mph /  5.8km/h 5mph /  8km/h 99% 0.00in /  0mm 9 W/m2
15:44 45.7 °F /  7.6 °C 45.4 °F /  7.4 °C 30.30in /  1026hPa North 3.4mph /  5.5km/h 5mph /  8km/h 99% 0.00in /  0mm 6 W/m2
15:49 45.7 °F /  7.6 °C 45.4 °F /  7.4 °C 30.30in /  1026hPa NNE 3.7mph /  6km/h 5mph /  8km/h 99% 0.00in /  0mm 6 W/m2
15:54 45.7 °F /  7.6 °C 45.4 °F /  7.4 °C 30.30in /  1026hPa NNE 3.4mph /  5.5km/h 5mph /  8km/h 99% 0.00in /  0mm 3 W/m2
15:59 45.6 °F /  7.6 °C 45.3 °F /  7.4 °C 30.30in /  1026hPa NNE 3.6mph /  5.8km/h 4mph /  6.4km/h 99% 0.00in /  0mm 2 W/m2
16:04 45.5 °F /  7.5 °C 45.2 °F /  7.3 °C 30.30in /  1026hPa NNE 4.9mph /  7.9km/h 5mph /  8km/h 99% 0.00in /  0mm 2 W/m2
16:09 45.5 °F /  7.5 °C 45.2 °F /  7.3 °C 30.29in /  1025.6hPa NNE 3.4mph /  5.5km/h 7mph /  11.3km/h 99% 0.00in /  0mm 1 W/m2
16:14 45.5 °F /  7.5 °C 45.2 °F /  7.3 °C 30.30in /  1026hPa North 4.3mph /  6.9km/h 6mph /  9.7km/h 99% 0.00in /  0mm 0 W/m2
16:19 45.3 °F /  7.4 °C 45.1 °F /  7.3 °C 30.30in /  1026hPa North 3.6mph /  5.8km/h 5mph /  8km/h 99% 0.00in /  0mm 0 W/m2
16:24 45.3 °F /  7.4 °C 45.1 °F /  7.3 °C 30.30in /  1026hPa NNE 3.9mph /  6.3km/h 5mph /  8km/h 99% 0.00in /  0mm 0 W/m2
16:29 45.3 °F /  7.4 °C 45.1 °F /  7.3 °C 30.29in /  1025.6hPa NNE 3.7mph /  6km/h 5mph /  8km/h 99% 0.00in /  0mm 0 W/m2
16:34 45.2 °F /  7.3 °C 45 °F /  7.2 °C 30.29in /  1025.6hPa NNE 3.6mph /  5.8km/h 5mph /  8km/h 99% 0.00in /  0mm 0 W/m2
16:39 45.1 °F /  7.3 °C 44.9 °F /  7.2 °C 30.30in /  1026hPa NNE 3.5mph /  5.6km/h 5mph /  8km/h 99% 0.00in /  0mm 0 W/m2
16:44 45.1 °F /  7.3 °C 44.9 °F /  7.2 °C 30.30in /  1026hPa NNE 3.8mph /  6.1km/h 5mph /  8km/h 99% 0.00in /  0mm 0 W/m2
16:49 45 °F /  7.2 °C 44.8 °F /  7.1 °C 30.30in /  1026hPa NNE 4.7mph /  7.6km/h 6mph /  9.7km/h 99% 0.00in /  0mm 0 W/m2
16:54 45 °F /  7.2 °C 44.7 °F /  7.1 °C 30.30in /  1026hPa NNE 4.1mph /  6.6km/h 6mph /  9.7km/h 99% 0.00in /  0mm 0 W/m2
16:59 45 °F /  7.2 °C 44.7 °F /  7.1 °C 30.30in /  1026hPa NNE 3.9mph /  6.3km/h 5mph /  8km/h 99% 0.00in /  0mm 0 W/m2
17:04 45 °F /  7.2 °C 44.7 °F /  7.1 °C 30.30in /  1026hPa NNE 5mph /  8km/h 6mph /  9.7km/h 99% 0.00in /  0mm 0 W/m2
17:09 45 °F /  7.2 °C 44.7 °F /  7.1 °C 30.30in /  1026hPa NNE 4.3mph /  6.9km/h 6mph /  9.7km/h 99% 0.00in /  0mm 0 W/m2
17:14 44.8 °F /  7.1 °C 44.5 °F /  6.9 °C 30.30in /  1026hPa NNE 4mph /  6.4km/h 5mph /  8km/h 99% 0.00in /  0mm 0 W/m2
17:19 44.8 °F /  7.1 °C 44.5 °F /  6.9 °C 30.30in /  1026hPa NNE 3.3mph /  5.3km/h 5mph /  8km/h 99% 0.00in /  0mm 0 W/m2
17:24 44.8 °F /  7.1 °C 44.5 °F /  6.9 °C 30.30in /  1026hPa NNE 3.4mph /  5.5km/h 4mph /  6.4km/h 99% 0.00in /  0mm 0 W/m2
17:29 44.8 °F /  7.1 °C 44.5 °F /  6.9 °C 30.30in /  1026hPa NNE 3.2mph /  5.1km/h 4mph /  6.4km/h 99% 0.00in /  0mm 0 W/m2
17:34 44.6 °F /  7 °C 44.3 °F /  6.8 °C 30.30in /  1026hPa NNE 3.5mph /  5.6km/h 4mph /  6.4km/h 99% 0.00in /  0mm 0 W/m2
17:39 44.6 °F /  7 °C 44.3 °F /  6.8 °C 30.30in /  1026hPa NNE 4.3mph /  6.9km/h 5mph /  8km/h 99% 0.00in /  0mm 0 W/m2
17:44 44.6 °F /  7 °C 44.3 °F /  6.8 °C 30.30in /  1026hPa NNE 3.6mph /  5.8km/h 5mph /  8km/h 99% 0.00in /  0mm 0 W/m2
17:49 44.5 °F /  6.9 °C 44.3 °F /  6.8 °C 30.30in /  1026hPa NNE 4.6mph /  7.4km/h 6mph /  9.7km/h 99% 0.00in /  0mm 0 W/m2
17:54 44.5 °F /  6.9 °C 44.3 °F /  6.8 °C 30.30in /  1026hPa NNE 4.9mph /  7.9km/h 6mph /  9.7km/h 99% 0.00in /  0mm 0 W/m2
17:59 44.4 °F /  6.9 °C 44.2 °F /  6.8 °C 30.30in /  1026hPa NNE 3.3mph /  5.3km/h 6mph /  9.7km/h 99% 0.00in /  0mm 0 W/m2
18:04 44.4 °F /  6.9 °C 44.2 °F /  6.8 °C 30.30in /  1026hPa NNE 4mph /  6.4km/h 4mph /  6.4km/h 99% 0.00in /  0mm 0 W/m2
18:09 44.3 °F /  6.8 °C 44.1 °F /  6.7 °C 30.30in /  1026hPa NNE 3.3mph /  5.3km/h 5mph /  8km/h 99% 0.00in /  0mm 0 W/m2
18:14 44.2 °F /  6.8 °C 44 °F /  6.7 °C 30.30in /  1026hPa NNE 3.6mph /  5.8km/h 4mph /  6.4km/h 99% 0.00in /  0mm 0 W/m2
18:19 44.2 °F /  6.8 °C 44 °F /  6.7 °C 30.30in /  1026hPa NNE 2mph /  3.2km/h 4mph /  6.4km/h 99% 0.00in /  0mm 0 W/m2
18:24 44.2 °F /  6.8 °C 44 °F /  6.7 °C 30.30in /  1026hPa NNE 3.3mph /  5.3km/h 2.7mph /  4.3km/h 99% 0.00in /  0mm 0 W/m2
18:29 44.2 °F /  6.8 °C 44 °F /  6.7 °C 30.29in /  1025.6hPa NNE 4mph /  6.4km/h 5mph /  8km/h 99% 0.00in /  0mm 0 W/m2
18:34 44.1 °F /  6.7 °C 43.8 °F /  6.6 °C 30.29in /  1025.6hPa NNE 4.8mph /  7.7km/h 5mph /  8km/h 99% 0.00in /  0mm 0 W/m2
18:39 44.1 °F /  6.7 °C 43.8 °F /  6.6 °C 30.30in /  1026hPa NNE 3.5mph /  5.6km/h 6mph /  9.7km/h 99% 0.00in /  0mm 0 W/m2
18:44 44.1 °F /  6.7 °C 43.8 °F /  6.6 °C 30.29in /  1025.6hPa NNE 3.3mph /  5.3km/h 4mph /  6.4km/h 99% 0.00in /  0mm 0 W/m2
18:49 44 °F /  6.7 °C 43.7 °F /  6.5 °C 30.29in /  1025.6hPa NNE 4.1mph /  6.6km/h 5mph /  8km/h 99% 0.00in /  0mm 0 W/m2
18:54 43.9 °F /  6.6 °C 43.6 °F /  6.4 °C 30.29in /  1025.6hPa North 3.9mph /  6.3km/h 5mph /  8km/h 99% 0.00in /  0mm 0 W/m2
18:59 43.9 °F /  6.6 °C 43.6 °F /  6.4 °C 30.29in /  1025.6hPa NNE 4.3mph /  6.9km/h 5mph /  8km/h 99% 0.00in /  0mm 0 W/m2
19:04 43.9 °F /  6.6 °C 43.6 °F /  6.4 °C 30.29in /  1025.6hPa NNE 3.2mph /  5.1km/h 5mph /  8km/h 99% 0.00in /  0mm 0 W/m2
19:09 43.8 °F /  6.6 °C 43.5 °F /  6.4 °C 30.29in /  1025.6hPa NNE 3.3mph /  5.3km/h 4mph /  6.4km/h 99% 0.00in /  0mm 0 W/m2
19:14 43.7 °F /  6.5 °C 43.4 °F /  6.3 °C 30.29in /  1025.6hPa NNE 3.2mph /  5.1km/h 5mph /  8km/h 99% 0.00in /  0mm 0 W/m2
19:19 43.7 °F /  6.5 °C 43.4 °F /  6.3 °C 30.29in /  1025.6hPa NNE 3.1mph /  5km/h 4mph /  6.4km/h 99% 0.00in /  0mm 0 W/m2
19:24 43.7 °F /  6.5 °C 43.4 °F /  6.3 °C 30.29in /  1025.6hPa NNE 2.6mph /  4.2km/h 4mph /  6.4km/h 99% 0.00in /  0mm 0 W/m2
19:29 43.7 °F /  6.5 °C 43.4 °F /  6.3 °C 30.29in /  1025.6hPa NNE 3.6mph /  5.8km/h 4mph /  6.4km/h 99% 0.00in /  0mm 0 W/m2
19:34 43.6 °F /  6.4 °C 43.4 °F /  6.3 °C 30.29in /  1025.6hPa NNE 3.4mph /  5.5km/h 4mph /  6.4km/h 99% 0.00in /  0mm 0 W/m2
19:39 43.5 °F /  6.4 °C 43.3 °F /  6.3 °C 30.29in /  1025.6hPa NNE 3mph /  4.8km/h 4mph /  6.4km/h 99% 0.00in /  0mm 0 W/m2
19:44 43.5 °F /  6.4 °C 43.3 °F /  6.3 °C 30.29in /  1025.6hPa North 1.3mph /  2.1km/h 3mph /  4.8km/h 99% 0.00in /  0mm 0 W/m2
19:49 43.5 °F /  6.4 °C 43.3 °F /  6.3 °C 30.29in /  1025.6hPa North 3mph /  4.8km/h 3mph /  4.8km/h 99% 0.00in /  0mm 0 W/m2
19:54 43.5 °F /  6.4 °C 43.3 °F /  6.3 °C 30.29in /  1025.6hPa North 3.1mph /  5km/h 3mph /  4.8km/h 99% 0.00in /  0mm 0 W/m2
19:59 43.5 °F /  6.4 °C 43.3 °F /  6.3 °C 30.29in /  1025.6hPa NNE 2.2mph /  3.5km/h 4mph /  6.4km/h 99% 0.00in /  0mm 0 W/m2
20:04 43.4 °F /  6.3 °C 43.2 °F /  6.2 °C 30.29in /  1025.6hPa North 2.1mph /  3.4km/h 2mph /  3.2km/h 99% 0.00in /  0mm 0 W/m2
20:09 43.3 °F /  6.3 °C 43.1 °F /  6.2 °C 30.29in /  1025.6hPa North 2.4mph /  3.9km/h 3mph /  4.8km/h 99% 0.00in /  0mm 0 W/m2
20:14 43.3 °F /  6.3 °C 43.1 °F /  6.2 °C 30.29in /  1025.6hPa NNE 2.9mph /  4.7km/h 2.7mph /  4.3km/h 99% 0.00in /  0mm 0 W/m2
20:19 43.3 °F /  6.3 °C 43.1 °F /  6.2 °C 30.29in /  1025.6hPa NNE 2.9mph /  4.7km/h 5mph /  8km/h 99% 0.00in /  0mm 0 W/m2
20:24 43.3 °F /  6.3 °C 43.1 °F /  6.2 °C 30.29in /  1025.6hPa North 2.3mph /  3.7km/h 3mph /  4.8km/h 99% 0.00in /  0mm 0 W/m2
20:29 43.3 °F /  6.3 °C 43.1 °F /  6.2 °C 30.29in /  1025.6hPa North 2.8mph /  4.5km/h 3mph /  4.8km/h 99% 0.00in /  0mm 0 W/m2
20:34 43.3 °F /  6.3 °C 43.1 °F /  6.2 °C 30.29in /  1025.6hPa NNE 2.9mph /  4.7km/h 4mph /  6.4km/h 99% 0.00in /  0mm 0 W/m2
20:39 43.3 °F /  6.3 °C 43.1 °F /  6.2 °C 30.29in /  1025.6hPa NNE 1.9mph /  3.1km/h 3mph /  4.8km/h 99% 0.00in /  0mm 0 W/m2
20:44 43.3 °F /  6.3 °C 43 °F /  6.1 °C 30.29in /  1025.6hPa NNE 2.1mph /  3.4km/h 2mph /  3.2km/h 99% 0.00in /  0mm 0 W/m2
20:49 43.2 °F /  6.2 °C 43 °F /  6.1 °C 30.29in /  1025.6hPa NNE 2.4mph /  3.9km/h 2mph /  3.2km/h 99% 0.00in /  0mm 0 W/m2
20:54 43.2 °F /  6.2 °C 42.9 °F /  6.1 °C 30.28in /  1025.3hPa North 2.2mph /  3.5km/h 3mph /  4.8km/h 99% 0.00in /  0mm 0 W/m2
20:59 43.2 °F /  6.2 °C 42.9 °F /  6.1 °C 30.28in /  1025.3hPa North 2mph /  3.2km/h 2mph /  3.2km/h 99% 0.00in /  0mm 0 W/m2
21:04 43.2 °F /  6.2 °C 42.9 °F /  6.1 °C 30.28in /  1025.3hPa North 1.9mph /  3.1km/h 2mph /  3.2km/h 99% 0.00in /  0mm 0 W/m2
21:09 43.2 °F /  6.2 °C 43 °F /  6.1 °C 30.28in /  1025.3hPa North 2mph /  3.2km/h 3mph /  4.8km/h 99% 0.00in /  0mm 0 W/m2
21:14 43.2 °F /  6.2 °C 42.9 °F /  6.1 °C 30.28in /  1025.3hPa North 2mph /  3.2km/h 2mph /  3.2km/h 99% 0.00in /  0mm 0 W/m2
21:19 43.2 °F /  6.2 °C 42.9 °F /  6.1 °C 30.28in /  1025.3hPa North 2.5mph /  4km/h 2.9mph /  4.7km/h 99% 0.00in /  0mm 0 W/m2
21:24 43.2 °F /  6.2 °C 42.9 °F /  6.1 °C 30.28in /  1025.3hPa North 2.8mph /  4.5km/h 4mph /  6.4km/h 99% 0.00in /  0mm 0 W/m2
21:29 43.2 °F /  6.2 °C 42.9 °F /  6.1 °C 30.28in /  1025.3hPa North 2.3mph /  3.7km/h 3mph /  4.8km/h 99% 0.00in /  0mm 0 W/m2
21:34 43.1 °F /  6.2 °C 42.8 °F /  6 °C 30.28in /  1025.3hPa North 2.4mph /  3.9km/h 3mph /  4.8km/h 99% 0.00in /  0mm 0 W/m2
21:39 43.1 °F /  6.2 °C 42.8 °F /  6 °C 30.28in /  1025.3hPa North 3.2mph /  5.1km/h 3mph /  4.8km/h 99% 0.00in /  0mm 0 W/m2
21:44 43 °F /  6.1 °C 42.7 °F /  5.9 °C 30.28in /  1025.3hPa North 3.2mph /  5.1km/h 4mph /  6.4km/h 99% 0.00in /  0mm 0 W/m2
21:49 43 °F /  6.1 °C 42.7 °F /  5.9 °C 30.28in /  1025.3hPa North 2.8mph /  4.5km/h 4mph /  6.4km/h 99% 0.00in /  0mm 0 W/m2
21:54 43 °F /  6.1 °C 42.7 °F /  5.9 °C 30.28in /  1025.3hPa North 2.3mph /  3.7km/h 4mph /  6.4km/h 99% 0.00in /  0mm 0 W/m2
21:59 43 °F /  6.1 °C 42.7 °F /  5.9 °C 30.28in /  1025.3hPa North 3.2mph /  5.1km/h 4mph /  6.4km/h 99% 0.00in /  0mm 0 W/m2
22:04 43 °F /  6.1 °C 42.7 °F /  5.9 °C 30.28in /  1025.3hPa North 2.6mph /  4.2km/h 5mph /  8km/h 99% 0.00in /  0mm 0 W/m2
22:09 43 °F /  6.1 °C 42.7 °F /  5.9 °C 30.28in /  1025.3hPa North 2.9mph /  4.7km/h 4mph /  6.4km/h 99% 0.00in /  0mm 0 W/m2
22:14 43 °F /  6.1 °C 42.7 °F /  5.9 °C 30.28in /  1025.3hPa NNE 2.5mph /  4km/h 3mph /  4.8km/h 99% 0.00in /  0mm 0 W/m2
22:19 42.9 °F /  6.1 °C 42.6 °F /  5.9 °C 30.28in /  1025.3hPa North 2.5mph /  4km/h 3mph /  4.8km/h 99% 0.00in /  0mm 0 W/m2
22:24 43 °F /  6.1 °C 42.7 °F /  5.9 °C 30.28in /  1025.3hPa North 1.9mph /  3.1km/h 3mph /  4.8km/h 99% 0.00in /  0mm 0 W/m2
22:29 43 °F /  6.1 °C 42.7 °F /  5.9 °C 30.28in /  1025.3hPa North 1.4mph /  2.3km/h 2mph /  3.2km/h 99% 0.00in /  0mm 0 W/m2
22:34 42.8 °F /  6 °C 42.5 °F /  5.8 °C 30.28in /  1025.3hPa NNW 2.4mph /  3.9km/h 2.2mph /  3.5km/h 99% 0.00in /  0mm 0 W/m2
22:39 42.8 °F /  6 °C 42.5 °F /  5.8 °C 30.28in /  1025.3hPa North 2.1mph /  3.4km/h 3mph /  4.8km/h 99% 0.00in /  0mm 0 W/m2
22:44 42.8 °F /  6 °C 42.5 °F /  5.8 °C 30.28in /  1025.3hPa North 2mph /  3.2km/h 3mph /  4.8km/h 99% 0.00in /  0mm 0 W/m2
22:49 42.8 °F /  6 °C 42.5 °F /  5.8 °C 30.28in /  1025.3hPa North 1.9mph /  3.1km/h 2mph /  3.2km/h 99% 0.00in /  0mm 0 W/m2
22:54 42.8 °F /  6 °C 42.5 °F /  5.8 °C 30.28in /  1025.3hPa North 2.3mph /  3.7km/h 2mph /  3.2km/h 99% 0.00in /  0mm 0 W/m2
22:59 42.8 °F /  6 °C 42.5 °F /  5.8 °C 30.28in /  1025.3hPa North 3.1mph /  5km/h 3mph /  4.8km/h 99% 0.00in /  0mm 0 W/m2
23:04 42.8 °F /  6 °C 42.5 °F /  5.8 °C 30.27in /  1024.9hPa North 3.3mph /  5.3km/h 4mph /  6.4km/h 99% 0.00in /  0mm 0 W/m2
23:09 42.8 °F /  6 °C 42.5 °F /  5.8 °C 30.27in /  1024.9hPa NNE 2.7mph /  4.3km/h 4mph /  6.4km/h 99% 0.00in /  0mm 0 W/m2
23:14 42.8 °F /  6 °C 42.5 °F /  5.8 °C 30.28in /  1025.3hPa North 2.2mph /  3.5km/h 3mph /  4.8km/h 99% 0.00in /  0mm 0 W/m2
23:19 42.8 °F /  6 °C 42.5 °F /  5.8 °C 30.28in /  1025.3hPa North 1.8mph /  2.9km/h 2mph /  3.2km/h 99% 0.00in /  0mm 0 W/m2
23:24 42.8 °F /  6 °C 42.5 °F /  5.8 °C 30.28in /  1025.3hPa North 1.9mph /  3.1km/h 2mph /  3.2km/h 99% 0.00in /  0mm 0 W/m2
23:29 42.8 °F /  6 °C 42.5 °F /  5.8 °C 30.28in /  1025.3hPa North 2.3mph /  3.7km/h 2mph /  3.2km/h 99% 0.00in /  0mm 0 W/m2
23:34 42.7 °F /  5.9 °C 42.5 °F /  5.8 °C 30.27in /  1024.9hPa North 2.7mph /  4.3km/h 2mph /  3.2km/h 99% 0.00in /  0mm 0 W/m2
23:39 42.6 °F /  5.9 °C 42.4 °F /  5.8 °C 30.27in /  1024.9hPa North 2.8mph /  4.5km/h 3mph /  4.8km/h 99% 0.00in /  0mm 0 W/m2
23:44 42.6 °F /  5.9 °C 42.4 °F /  5.8 °C 30.27in /  1024.9hPa North 3.1mph /  5km/h 3mph /  4.8km/h 99% 0.00in /  0mm 0 W/m2
23:49 42.6 °F /  5.9 °C 42.4 °F /  5.8 °C 30.27in /  1024.9hPa North 3.8mph /  6.1km/h 5mph /  8km/h 99% 0.00in /  0mm 0 W/m2
23:54 42.6 °F /  5.9 °C 42.4 °F /  5.8 °C 30.27in /  1024.9hPa North 2.1mph /  3.4km/h 5mph /  8km/h 99% 0.00in /  0mm 0 W/m2
23:59 42.6 °F /  5.9 °C 42.4 °F /  5.8 °C 30.27in /  1024.9hPa North 3.5mph /  5.6km/h 3.1mph /  5km/h 99% 0.00in /  0mm 0 W/m2
Knjazevac, Serbia
Compliments of Weather Underground - 4 mb